createdAt,value
2018-09-19T00:00:10.110Z,0.00
2018-09-19T00:01:10.684Z,0.00
2018-09-19T00:02:11.295Z,0.00
2018-09-19T00:03:11.907Z,0.00
2018-09-19T00:04:12.529Z,0.00
2018-09-19T00:05:13.131Z,0.00
2018-09-19T00:06:13.748Z,0.00
2018-09-19T00:07:14.368Z,0.00
2018-09-19T00:08:14.973Z,0.00
2018-09-19T00:09:15.585Z,0.00
2018-09-19T00:10:16.202Z,0.00
2018-09-19T00:11:16.811Z,0.00
2018-09-19T00:12:17.427Z,0.00
2018-09-19T00:13:18.049Z,0.00
2018-09-19T00:14:18.670Z,0.00
2018-09-19T00:15:19.291Z,0.00
2018-09-19T00:16:19.905Z,0.00
2018-09-19T00:17:20.523Z,0.00
2018-09-19T00:18:21.132Z,0.00
2018-09-19T00:19:21.742Z,0.00
2018-09-19T00:20:22.480Z,0.00
2018-09-19T00:21:22.971Z,0.00
2018-09-19T00:22:23.584Z,0.00
2018-09-19T00:23:24.200Z,0.00
2018-09-19T00:24:24.806Z,0.00
2018-09-19T00:25:25.476Z,0.00
2018-09-19T00:26:26.110Z,0.00
2018-09-19T00:27:26.728Z,0.00
2018-09-19T00:28:29.852Z,0.00
2018-09-19T00:29:30.470Z,0.00
2018-09-19T00:30:31.082Z,0.00
2018-09-19T00:31:31.697Z,0.00
2018-09-19T00:32:32.317Z,0.00
2018-09-19T00:33:32.933Z,0.00
2018-09-19T00:34:33.551Z,0.00
2018-09-19T00:35:34.177Z,0.00
2018-09-19T00:36:34.797Z,0.00
2018-09-19T00:37:35.418Z,0.00
2018-09-19T00:38:36.034Z,0.00
2018-09-19T00:39:36.663Z,0.00
2018-09-19T00:40:37.275Z,0.00
2018-09-19T00:41:37.887Z,0.00
2018-09-19T00:42:38.497Z,0.00
2018-09-19T00:43:39.119Z,0.00
2018-09-19T00:44:39.738Z,0.00
2018-09-19T00:45:40.392Z,0.00
2018-09-19T00:46:41.001Z,0.00
2018-09-19T00:47:41.572Z,0.00
2018-09-19T00:48:42.185Z,0.00
2018-09-19T00:49:42.798Z,0.00
2018-09-19T00:50:43.415Z,0.00
2018-09-19T00:51:44.034Z,0.00
2018-09-19T00:52:44.646Z,0.00
2018-09-19T00:53:45.257Z,0.00
2018-09-19T00:54:45.875Z,0.00
2018-09-19T00:55:46.489Z,0.00
2018-09-19T00:56:47.109Z,0.00
2018-09-19T00:57:47.723Z,0.00
2018-09-19T00:58:48.336Z,0.00
2018-09-19T00:59:48.960Z,0.00
2018-09-19T00:59:50.058Z,0.00
2018-09-19T01:01:49.654Z,0.00
2018-09-19T01:02:50.205Z,0.00
2018-09-19T01:03:50.822Z,0.00
2018-09-19T01:04:51.449Z,0.00
2018-09-19T01:05:52.058Z,0.00
2018-09-19T01:06:52.677Z,0.00
2018-09-19T01:07:53.292Z,0.00
2018-09-19T01:08:53.907Z,0.00
2018-09-19T01:09:54.531Z,0.00
2018-09-19T01:10:55.145Z,0.00
2018-09-19T01:11:55.758Z,0.00
2018-09-19T01:12:56.366Z,0.00
2018-09-19T01:13:56.984Z,0.00
2018-09-19T01:14:57.603Z,0.00
2018-09-19T01:15:58.255Z,0.00
2018-09-19T01:16:58.829Z,0.00
2018-09-19T01:17:59.448Z,0.00
2018-09-19T01:19:00.059Z,0.00
2018-09-19T01:20:00.674Z,0.00
2018-09-19T01:21:01.287Z,0.00
2018-09-19T01:22:01.901Z,0.00
2018-09-19T01:23:02.561Z,0.00
2018-09-19T01:24:03.133Z,0.00
2018-09-19T01:25:03.744Z,0.00
2018-09-19T01:26:04.353Z,0.00
2018-09-19T01:27:04.968Z,0.00
2018-09-19T01:28:05.592Z,0.00
2018-09-19T01:29:06.202Z,0.00
2018-09-19T01:30:06.816Z,0.00
2018-09-19T01:31:07.433Z,0.00
2018-09-19T01:32:08.036Z,0.00
2018-09-19T01:33:08.651Z,0.00
2018-09-19T01:34:09.267Z,0.00
2018-09-19T01:35:09.889Z,0.00
2018-09-19T01:36:10.501Z,0.00
2018-09-19T01:37:11.121Z,0.00
2018-09-19T01:38:11.745Z,0.00
2018-09-19T01:39:12.346Z,0.00
2018-09-19T01:40:12.959Z,0.00
2018-09-19T01:41:13.581Z,0.00
2018-09-19T01:42:14.189Z,0.00
2018-09-19T01:43:14.809Z,0.00
2018-09-19T01:44:15.466Z,0.00
2018-09-19T01:45:16.032Z,0.00
2018-09-19T01:46:16.650Z,0.00
2018-09-19T01:47:17.273Z,0.00
2018-09-19T01:48:17.880Z,0.00
2018-09-19T01:49:18.495Z,0.00
2018-09-19T01:50:19.113Z,0.00
2018-09-19T01:51:19.719Z,0.00
2018-09-19T01:52:20.339Z,0.00
2018-09-19T01:53:20.953Z,0.00
2018-09-19T01:54:21.573Z,0.00
2018-09-19T01:55:22.192Z,0.00
2018-09-19T01:56:22.803Z,0.00
2018-09-19T01:57:23.415Z,0.00
2018-09-19T01:58:24.032Z,0.00
2018-09-19T01:59:24.645Z,0.00
2018-09-19T02:00:25.263Z,0.00
2018-09-19T02:01:25.875Z,0.00
2018-09-19T02:02:26.489Z,0.00
2018-09-19T02:03:27.105Z,0.00
2018-09-19T02:04:27.723Z,0.00
2018-09-19T02:05:28.326Z,0.00
2018-09-19T02:06:28.942Z,0.00
2018-09-19T02:07:29.553Z,0.00
2018-09-19T02:08:30.167Z,0.00
2018-09-19T02:09:30.788Z,0.00
2018-09-19T02:10:31.399Z,0.00
2018-09-19T02:11:32.012Z,0.00
2018-09-19T02:11:33.132Z,0.00
2018-09-19T02:13:32.646Z,0.00
2018-09-19T02:14:33.263Z,0.00
2018-09-19T02:15:33.870Z,0.00
2018-09-19T02:16:34.491Z,0.00
2018-09-19T02:17:35.105Z,0.00
2018-09-19T02:18:35.720Z,0.00
2018-09-19T02:19:36.331Z,0.00
2018-09-19T02:20:36.943Z,0.00
2018-09-19T02:21:37.557Z,0.00
2018-09-19T02:22:38.169Z,0.00
2018-09-19T02:23:38.785Z,0.00
2018-09-19T02:24:39.402Z,0.00
2018-09-19T02:25:40.014Z,0.00
2018-09-19T02:26:40.667Z,0.00
2018-09-19T02:27:41.243Z,0.00
2018-09-19T02:28:41.984Z,0.00
2018-09-19T02:29:42.465Z,0.00
2018-09-19T02:30:43.077Z,0.00
2018-09-19T02:31:43.698Z,0.00
2018-09-19T02:32:44.315Z,0.00
2018-09-19T02:33:44.922Z,0.00
2018-09-19T02:34:45.537Z,0.00
2018-09-19T02:35:46.149Z,0.00
2018-09-19T02:36:46.766Z,0.00
2018-09-19T02:37:47.374Z,0.00
2018-09-19T02:38:47.989Z,0.00
2018-09-19T02:39:48.599Z,0.00
2018-09-19T02:40:49.211Z,0.00
2018-09-19T02:41:49.821Z,0.00
2018-09-19T02:42:50.442Z,0.00
2018-09-19T02:43:51.048Z,0.00
2018-09-19T02:44:51.663Z,0.00
2018-09-19T02:45:52.349Z,0.00
2018-09-19T02:46:52.897Z,0.00
2018-09-19T02:47:53.503Z,0.00
2018-09-19T02:48:54.165Z,0.00
2018-09-19T02:49:54.730Z,0.00
2018-09-19T02:50:55.339Z,0.00
2018-09-19T02:51:55.965Z,0.00
2018-09-19T02:52:56.563Z,0.00
2018-09-19T02:53:57.181Z,0.00
2018-09-19T02:54:57.792Z,0.00
2018-09-19T02:55:58.408Z,0.00
2018-09-19T02:56:59.020Z,0.00
2018-09-19T02:57:59.646Z,0.00
2018-09-19T02:59:00.252Z,0.00
2018-09-19T03:00:00.915Z,0.00
2018-09-19T03:01:01.475Z,0.00
2018-09-19T03:02:02.104Z,0.00
2018-09-19T03:03:02.713Z,0.00
2018-09-19T03:04:03.318Z,0.00
2018-09-19T03:05:03.931Z,0.00
2018-09-19T03:06:04.542Z,0.00
2018-09-19T03:07:05.164Z,0.00
2018-09-19T03:08:05.773Z,0.00
2018-09-19T03:09:06.396Z,0.00
2018-09-19T03:10:07.010Z,0.00
2018-09-19T03:11:07.620Z,0.00
2018-09-19T03:12:08.233Z,0.00
2018-09-19T03:13:08.851Z,0.00
2018-09-19T03:14:09.462Z,0.00
2018-09-19T03:15:10.109Z,0.00
2018-09-19T03:16:10.689Z,0.00
2018-09-19T03:17:11.373Z,0.00
2018-09-19T03:18:11.918Z,0.00
2018-09-19T03:19:12.528Z,0.00
2018-09-19T03:20:13.141Z,0.00
2018-09-19T03:21:13.760Z,0.00
2018-09-19T03:22:14.366Z,0.00
2018-09-19T03:23:14.988Z,0.00
2018-09-19T03:23:16.100Z,0.00
2018-09-19T03:25:15.623Z,0.00
2018-09-19T03:26:16.236Z,0.00
2018-09-19T03:27:16.843Z,0.00
2018-09-19T03:28:17.460Z,0.00
2018-09-19T03:29:18.075Z,0.00
2018-09-19T03:30:18.689Z,0.00
2018-09-19T03:31:19.307Z,0.00
2018-09-19T03:32:19.915Z,0.00
2018-09-19T03:33:20.516Z,0.00
2018-09-19T03:34:21.130Z,0.00
2018-09-19T03:35:21.839Z,0.00
2018-09-19T03:36:22.359Z,0.00
2018-09-19T03:37:22.971Z,0.00
2018-09-19T03:38:23.583Z,0.00
2018-09-19T03:39:24.211Z,0.00
2018-09-19T03:40:24.809Z,0.00
2018-09-19T03:41:25.417Z,0.00
2018-09-19T03:42:26.037Z,0.00
2018-09-19T03:43:26.646Z,0.00
2018-09-19T03:44:27.258Z,0.00
2018-09-19T03:45:27.880Z,0.00
2018-09-19T03:46:28.488Z,0.00
2018-09-19T03:47:29.114Z,0.00
2018-09-19T03:48:29.721Z,0.00
2018-09-19T03:49:30.334Z,0.00
2018-09-19T03:50:30.945Z,0.00
2018-09-19T03:51:31.561Z,0.00
2018-09-19T03:52:32.176Z,0.00
2018-09-19T03:53:32.784Z,0.00
2018-09-19T03:54:33.403Z,0.00
2018-09-19T03:55:34.006Z,0.00
2018-09-19T03:56:34.657Z,0.00
2018-09-19T03:57:35.269Z,0.00
2018-09-19T03:58:35.899Z,0.00
2018-09-19T03:59:36.496Z,0.00
2018-09-19T04:00:37.109Z,0.00
2018-09-19T04:01:37.719Z,0.00
2018-09-19T04:02:38.333Z,0.00
2018-09-19T04:03:38.941Z,0.00
2018-09-19T04:04:39.554Z,0.00
2018-09-19T04:05:40.172Z,0.00
2018-09-19T04:06:40.781Z,0.00
2018-09-19T04:07:41.395Z,0.00
2018-09-19T04:08:42.047Z,0.00
2018-09-19T04:09:43.139Z,0.00
2018-09-19T04:10:43.328Z,0.00
2018-09-19T04:11:43.871Z,0.00
2018-09-19T04:12:44.729Z,0.00
2018-09-19T04:13:45.355Z,0.00
2018-09-19T04:14:45.960Z,0.00
2018-09-19T04:15:46.745Z,0.00
2018-09-19T04:16:47.149Z,0.00
2018-09-19T04:17:47.589Z,0.00
2018-09-19T04:18:48.202Z,0.00
2018-09-19T04:19:48.835Z,0.00
2018-09-19T04:20:49.425Z,0.00
2018-09-19T04:21:50.039Z,0.00
2018-09-19T04:22:50.656Z,0.00
2018-09-19T04:23:51.276Z,0.00
2018-09-19T04:24:51.892Z,0.00
2018-09-19T04:25:52.708Z,0.00
2018-09-19T04:26:53.185Z,0.00
2018-09-19T04:27:53.789Z,0.00
2018-09-19T04:28:54.402Z,0.00
2018-09-19T04:29:55.049Z,0.00
2018-09-19T04:30:55.635Z,0.00
2018-09-19T04:31:56.250Z,0.00
2018-09-19T04:32:56.905Z,0.00
2018-09-19T04:33:57.536Z,0.00
2018-09-19T04:34:58.167Z,0.00
2018-09-19T04:34:59.263Z,0.00
2018-09-19T04:36:58.763Z,0.00
2018-09-19T04:37:59.556Z,0.00
2018-09-19T04:39:00.095Z,0.00
2018-09-19T04:40:00.588Z,0.00
2018-09-19T04:41:01.225Z,0.00
2018-09-19T04:42:01.817Z,0.00
2018-09-19T04:43:02.416Z,0.00
2018-09-19T04:44:03.027Z,0.00
2018-09-19T04:45:03.694Z,0.00
2018-09-19T04:46:04.259Z,0.00
2018-09-19T04:47:04.853Z,0.00
2018-09-19T04:48:05.494Z,0.00
2018-09-19T04:49:06.102Z,0.00
2018-09-19T04:50:06.714Z,0.00
2018-09-19T04:51:07.457Z,0.00
2018-09-19T04:52:07.951Z,0.00
2018-09-19T04:53:08.593Z,0.00
2018-09-19T04:54:09.196Z,0.00
2018-09-19T04:55:09.809Z,0.00
2018-09-19T04:56:10.473Z,0.00
2018-09-19T04:57:11.034Z,0.00
2018-09-19T04:58:11.671Z,0.00
2018-09-19T04:59:12.292Z,0.00
2018-09-19T05:00:12.890Z,0.00
2018-09-19T05:01:13.481Z,0.00
2018-09-19T05:02:14.101Z,0.00
2018-09-19T05:03:17.472Z,0.00
2018-09-19T05:04:18.045Z,0.00
2018-09-19T05:05:18.655Z,0.00
2018-09-19T05:06:19.297Z,0.00
2018-09-19T05:07:19.917Z,0.00
2018-09-19T05:08:20.473Z,0.00
2018-09-19T05:09:21.083Z,0.00
2018-09-19T05:10:21.698Z,0.00
2018-09-19T05:11:22.469Z,0.00
2018-09-19T05:12:22.952Z,0.00
2018-09-19T05:13:23.557Z,0.00
2018-09-19T05:14:24.163Z,0.00
2018-09-19T05:15:24.802Z,0.00
2018-09-19T05:16:25.457Z,0.00
2018-09-19T05:17:26.003Z,0.00
2018-09-19T05:18:26.625Z,0.00
2018-09-19T05:19:27.364Z,0.00
2018-09-19T05:20:27.856Z,0.00
2018-09-19T05:21:28.476Z,0.00
2018-09-19T05:22:29.085Z,0.00
2018-09-19T05:23:29.686Z,0.00
2018-09-19T05:24:30.297Z,0.00
2018-09-19T05:25:30.914Z,0.00
2018-09-19T05:26:31.527Z,0.00
2018-09-19T05:27:32.217Z,0.00
2018-09-19T05:28:33.127Z,0.00
2018-09-19T05:29:33.668Z,0.00
2018-09-19T05:30:34.370Z,0.00
2018-09-19T05:31:35.021Z,0.00
2018-09-19T05:32:35.577Z,0.00
2018-09-19T05:33:36.193Z,0.00
2018-09-19T05:36:32.154Z,0.00
2018-09-19T05:37:33.676Z,0.00
2018-09-19T05:40:26.535Z,0.00
2018-09-19T05:41:26.141Z,0.00
2018-09-19T05:44:22.578Z,0.00
2018-09-19T05:45:23.513Z,0.00
2018-09-19T05:48:16.834Z,0.00
2018-09-19T05:49:16.185Z,0.00
2018-09-19T05:52:11.372Z,0.00
2018-09-19T05:53:11.500Z,0.00
2018-09-19T05:56:05.141Z,0.00
2018-09-19T05:57:05.822Z,0.00
2018-09-19T06:00:01.158Z,0.00
2018-09-19T06:01:01.987Z,0.00
2018-09-19T06:03:58.295Z,0.00
2018-09-19T06:04:58.426Z,0.00
2018-09-19T06:07:51.638Z,0.00
2018-09-19T06:08:51.583Z,0.00
2018-09-19T06:11:47.079Z,0.00
2018-09-19T06:12:48.952Z,0.00
2018-09-19T06:15:41.706Z,0.00
2018-09-19T06:16:43.601Z,0.00
2018-09-19T06:17:42.249Z,0.00
2018-09-19T06:18:44.191Z,0.00
2018-09-19T06:19:43.247Z,0.00
2018-09-19T06:20:43.830Z,0.00
2018-09-19T06:21:44.390Z,0.00
2018-09-19T06:22:45.002Z,0.00
2018-09-19T06:23:45.642Z,0.00
2018-09-19T06:24:46.262Z,0.00
2018-09-19T06:25:46.877Z,0.00
2018-09-19T06:26:47.548Z,0.00
2018-09-19T06:27:48.152Z,0.00
2018-09-19T06:28:48.773Z,0.00
2018-09-19T06:29:49.341Z,0.00
2018-09-19T06:30:49.963Z,0.00
2018-09-19T06:31:50.592Z,0.00
2018-09-19T06:32:51.219Z,0.00
2018-09-19T06:33:51.792Z,0.00
2018-09-19T06:34:52.428Z,0.00
2018-09-19T06:35:53.095Z,0.00
2018-09-19T06:36:53.746Z,5.63
2018-09-19T06:37:54.346Z,5.63
2018-09-19T06:38:54.988Z,0.00
2018-09-19T06:39:55.649Z,0.00
2018-09-19T06:40:56.390Z,0.00
2018-09-19T06:41:56.835Z,5.63
2018-09-19T06:42:57.532Z,5.63
2018-09-19T06:43:58.170Z,5.63
2018-09-19T06:44:58.794Z,5.63
2018-09-19T06:45:59.485Z,5.63
2018-09-19T06:47:00.107Z,5.63
2018-09-19T06:48:00.621Z,5.63
2018-09-19T06:49:01.260Z,5.63
2018-09-19T06:50:01.845Z,5.63
2018-09-19T06:51:02.454Z,5.63
2018-09-19T06:52:03.097Z,5.63
2018-09-19T06:53:03.690Z,5.63
2018-09-19T06:54:04.301Z,5.63
2018-09-19T06:55:05.169Z,5.63
2018-09-19T06:56:05.504Z,5.63
2018-09-19T06:57:06.134Z,5.63
2018-09-19T06:58:06.743Z,5.63
2018-09-19T06:59:07.407Z,5.63
2018-09-19T07:00:07.947Z,5.63
2018-09-19T07:01:08.584Z,5.63
2018-09-19T07:02:09.207Z,5.63
2018-09-19T07:03:09.825Z,5.63
2018-09-19T07:04:10.440Z,5.63
2018-09-19T07:05:11.063Z,5.63
2018-09-19T07:06:11.662Z,5.63
2018-09-19T07:07:12.282Z,5.63
2018-09-19T07:08:12.883Z,5.63
2018-09-19T07:09:13.503Z,5.63
2018-09-19T07:10:14.119Z,5.63
2018-09-19T07:11:14.798Z,5.63
2018-09-19T07:12:15.385Z,5.63
2018-09-19T07:13:16.066Z,5.63
2018-09-19T07:14:16.664Z,5.63
2018-09-19T07:15:17.331Z,5.63
2018-09-19T07:16:17.848Z,5.63
2018-09-19T07:17:18.454Z,5.63
2018-09-19T07:18:19.073Z,5.63
2018-09-19T07:19:19.717Z,5.63
2018-09-19T07:20:20.325Z,5.63
2018-09-19T07:21:20.965Z,5.63
2018-09-19T07:22:21.550Z,5.63
2018-09-19T07:23:22.178Z,5.63
2018-09-19T07:24:23.222Z,5.63
2018-09-19T07:25:23.426Z,5.63
2018-09-19T07:25:24.532Z,5.63
2018-09-19T07:27:24.084Z,5.63
2018-09-19T07:28:24.723Z,5.63
2018-09-19T07:29:25.341Z,5.63
2018-09-19T07:30:25.907Z,5.63
2018-09-19T07:31:26.520Z,5.63
2018-09-19T07:32:27.143Z,5.63
2018-09-19T07:33:27.789Z,5.63
2018-09-19T07:34:28.419Z,5.63
2018-09-19T07:35:29.043Z,5.63
2018-09-19T07:36:29.695Z,5.63
2018-09-19T07:37:30.308Z,5.63
2018-09-19T07:38:30.995Z,5.63
2018-09-19T07:39:31.568Z,5.63
2018-09-19T07:40:32.219Z,5.63
2018-09-19T07:41:32.842Z,5.63
2018-09-19T07:42:33.523Z,5.63
2018-09-19T07:43:34.098Z,5.63
2018-09-19T07:44:34.769Z,5.63
2018-09-19T07:45:35.451Z,5.63
2018-09-19T07:46:36.119Z,5.63
2018-09-19T07:47:36.670Z,5.63
2018-09-19T07:48:37.318Z,5.63
2018-09-19T07:49:37.915Z,5.63
2018-09-19T07:50:38.577Z,5.63
2018-09-19T07:51:39.122Z,5.63
2018-09-19T07:52:39.742Z,5.63
2018-09-19T07:53:40.379Z,5.63
2018-09-19T07:54:40.997Z,5.63
2018-09-19T07:55:41.590Z,5.63
2018-09-19T07:56:42.233Z,5.63
2018-09-19T07:57:42.860Z,5.63
2018-09-19T07:58:43.491Z,5.63
2018-09-19T07:59:44.150Z,5.63
2018-09-19T08:00:44.928Z,5.63
2018-09-19T08:01:45.388Z,5.63
2018-09-19T08:02:46.032Z,5.63
2018-09-19T08:03:46.664Z,5.63
2018-09-19T08:04:47.341Z,5.63
2018-09-19T08:05:47.987Z,5.63
2018-09-19T08:06:48.600Z,5.63
2018-09-19T08:07:49.340Z,5.63
2018-09-19T08:08:49.883Z,5.63
2018-09-19T08:09:50.503Z,11.25
2018-09-19T08:10:51.114Z,11.25
2018-09-19T08:11:51.768Z,11.25
2018-09-19T08:12:52.344Z,11.25
2018-09-19T08:13:52.983Z,11.25
2018-09-19T08:14:53.592Z,5.63
2018-09-19T08:15:54.209Z,5.63
2018-09-19T08:16:54.896Z,5.63
2018-09-19T08:17:55.461Z,5.63
2018-09-19T08:18:56.070Z,5.63
2018-09-19T08:19:56.705Z,5.63
2018-09-19T08:20:57.312Z,5.63
2018-09-19T08:21:57.933Z,5.63
2018-09-19T08:22:58.553Z,11.25
2018-09-19T08:23:59.209Z,11.25
2018-09-19T08:24:59.841Z,11.25
2018-09-19T08:26:00.445Z,11.25
2018-09-19T08:27:01.165Z,11.25
2018-09-19T08:28:01.671Z,11.25
2018-09-19T08:29:02.291Z,11.25
2018-09-19T08:30:02.940Z,11.25
2018-09-19T08:31:03.530Z,11.25
2018-09-19T08:32:04.151Z,11.25
2018-09-19T08:33:04.764Z,11.25
2018-09-19T08:34:05.384Z,11.25
2018-09-19T08:35:06.041Z,11.25
2018-09-19T08:36:06.670Z,11.25
2018-09-19T08:37:07.232Z,11.25
2018-09-19T08:38:07.876Z,11.25
2018-09-19T08:39:08.493Z,11.25
2018-09-19T08:40:09.171Z,11.25
2018-09-19T08:41:09.732Z,11.25
2018-09-19T08:42:10.341Z,11.25
2018-09-19T08:43:10.962Z,11.25
2018-09-19T08:44:11.578Z,11.25
2018-09-19T08:45:12.198Z,11.25
2018-09-19T08:46:12.815Z,11.25
2018-09-19T08:47:13.485Z,11.25
2018-09-19T08:48:14.047Z,11.25
2018-09-19T08:49:14.720Z,11.25
2018-09-19T08:50:15.329Z,11.25
2018-09-19T08:51:15.954Z,11.25
2018-09-19T08:52:16.570Z,11.25
2018-09-19T08:53:17.185Z,11.25
2018-09-19T08:54:17.822Z,11.25
2018-09-19T08:55:18.440Z,11.25
2018-09-19T08:56:19.042Z,11.25
2018-09-19T08:57:19.735Z,11.25
2018-09-19T08:58:20.308Z,11.25
2018-09-19T08:59:20.939Z,11.25
2018-09-19T09:00:21.576Z,11.25
2018-09-19T09:01:22.185Z,11.25
2018-09-19T09:02:22.805Z,11.25
2018-09-19T09:03:23.418Z,11.25
2018-09-19T09:04:24.044Z,11.25
2018-09-19T09:05:24.733Z,11.25
2018-09-19T09:06:25.307Z,11.25
2018-09-19T09:07:25.960Z,11.25
2018-09-19T09:08:26.570Z,11.25
2018-09-19T09:09:27.192Z,11.25
2018-09-19T09:10:27.884Z,11.25
2018-09-19T09:11:28.463Z,11.25
2018-09-19T09:12:29.149Z,16.88
2018-09-19T09:13:29.712Z,16.88
2018-09-19T09:14:30.340Z,16.88
2018-09-19T09:15:30.986Z,16.88
2018-09-19T09:16:31.576Z,16.88
2018-09-19T09:17:32.195Z,16.88
2018-09-19T09:18:32.824Z,16.88
2018-09-19T09:19:33.510Z,16.88
2018-09-19T09:20:34.065Z,16.88
2018-09-19T09:21:34.680Z,16.88
2018-09-19T09:22:35.305Z,16.88
2018-09-19T09:23:35.916Z,16.88
2018-09-19T09:24:36.548Z,16.88
2018-09-19T09:25:37.154Z,16.88
2018-09-19T09:26:37.844Z,16.88
2018-09-19T09:27:38.456Z,11.25
2018-09-19T09:28:39.128Z,16.88
2018-09-19T09:29:39.749Z,16.88
2018-09-19T09:30:40.369Z,16.88
2018-09-19T09:31:40.984Z,16.88
2018-09-19T09:32:41.627Z,16.88
2018-09-19T09:33:42.279Z,16.88
2018-09-19T09:34:42.899Z,22.50
2018-09-19T09:35:43.521Z,33.75
2018-09-19T09:36:44.152Z,33.75
2018-09-19T09:37:44.807Z,33.75
2018-09-19T09:38:45.426Z,16.88
2018-09-19T09:39:46.044Z,16.88
2018-09-19T09:40:46.710Z,16.88
2018-09-19T09:41:47.332Z,28.13
2018-09-19T09:42:47.949Z,28.13
2018-09-19T09:43:48.584Z,22.50
2018-09-19T09:44:49.229Z,22.50
2018-09-19T09:45:49.917Z,16.88
2018-09-19T09:46:50.485Z,28.13
2018-09-19T09:47:51.119Z,22.50
2018-09-19T09:47:52.230Z,22.50
2018-09-19T09:49:51.797Z,22.50
2018-09-19T09:50:52.388Z,16.88
2018-09-19T09:51:52.999Z,16.88
2018-09-19T09:52:53.664Z,28.13
2018-09-19T09:53:54.239Z,16.88
2018-09-19T09:54:54.892Z,22.50
2018-09-19T09:55:55.478Z,28.13
2018-09-19T09:56:56.156Z,33.75
2018-09-19T09:57:56.758Z,22.50
2018-09-19T09:58:57.386Z,16.88
2018-09-19T09:59:58.007Z,16.88
2018-09-19T10:00:58.628Z,16.88
2018-09-19T10:01:59.259Z,22.50
2018-09-19T10:02:59.973Z,22.50
2018-09-19T10:04:00.531Z,22.50
2018-09-19T10:05:01.152Z,22.50
2018-09-19T10:06:01.775Z,22.50
2018-09-19T10:07:02.439Z,28.13
2018-09-19T10:08:03.089Z,28.13
2018-09-19T10:09:03.696Z,22.50
2018-09-19T10:10:04.339Z,22.50
2018-09-19T10:11:04.969Z,22.50
2018-09-19T10:12:05.669Z,28.13
2018-09-19T10:13:06.289Z,28.13
2018-09-19T10:14:06.910Z,16.88
2018-09-19T10:15:07.574Z,16.88
2018-09-19T10:16:08.225Z,28.13
2018-09-19T10:17:08.845Z,22.50
2018-09-19T10:18:09.505Z,16.88
2018-09-19T10:19:10.200Z,28.13
2018-09-19T10:20:10.735Z,28.13
2018-09-19T10:21:11.439Z,28.13
2018-09-19T10:22:12.077Z,33.75
2018-09-19T10:23:12.640Z,28.13
2018-09-19T10:24:13.293Z,28.13
2018-09-19T10:25:13.898Z,33.75
2018-09-19T10:26:14.467Z,39.38
2018-09-19T10:27:15.193Z,50.63
2018-09-19T10:28:15.711Z,45.00
2018-09-19T10:29:16.325Z,39.38
2018-09-19T10:30:16.942Z,45.00
2018-09-19T10:31:17.567Z,16.88
2018-09-19T10:32:18.199Z,33.75
2018-09-19T10:33:18.822Z,33.75
2018-09-19T10:34:19.501Z,50.63
2018-09-19T10:35:20.161Z,28.13
2018-09-19T10:36:20.741Z,33.75
2018-09-19T10:37:21.362Z,33.75
2018-09-19T10:38:21.994Z,45.00
2018-09-19T10:39:22.613Z,45.00
2018-09-19T10:40:23.267Z,28.13
2018-09-19T10:41:23.873Z,28.13
2018-09-19T10:42:24.510Z,45.00
2018-09-19T10:43:25.103Z,56.25
2018-09-19T10:44:25.729Z,56.25
2018-09-19T10:45:26.366Z,45.00
2018-09-19T10:46:26.987Z,50.63
2018-09-19T10:47:27.689Z,45.00
2018-09-19T10:48:28.213Z,33.75
2018-09-19T10:49:28.867Z,33.75
2018-09-19T10:50:29.460Z,50.63
2018-09-19T10:51:30.127Z,56.25
2018-09-19T10:52:30.737Z,56.25
2018-09-19T10:53:31.399Z,39.38
2018-09-19T10:54:32.228Z,45.00
2018-09-19T10:55:32.824Z,33.75
2018-09-19T10:56:33.438Z,16.88
2018-09-19T10:57:34.020Z,33.75
2018-09-19T10:58:34.647Z,39.38
2018-09-19T10:59:35.265Z,45.00
2018-09-19T10:59:36.377Z,39.38
2018-09-19T11:01:35.912Z,39.38
2018-09-19T11:02:36.529Z,33.75
2018-09-19T11:03:37.143Z,39.38
2018-09-19T11:04:37.765Z,56.25
2018-09-19T11:05:38.387Z,39.38
2018-09-19T11:06:39.003Z,33.75
2018-09-19T11:07:39.643Z,39.38
2018-09-19T11:08:40.254Z,45.00
2018-09-19T11:09:40.876Z,50.63
2018-09-19T11:10:41.497Z,45.00
2018-09-19T11:11:42.124Z,39.38
2018-09-19T11:12:42.730Z,45.00
2018-09-19T11:13:43.353Z,45.00
2018-09-19T11:14:43.975Z,50.63
2018-09-19T11:15:44.615Z,33.75
2018-09-19T11:16:45.229Z,33.75
2018-09-19T11:17:45.867Z,39.38
2018-09-19T11:18:46.478Z,45.00
2018-09-19T11:19:47.096Z,50.63
2018-09-19T11:20:47.721Z,45.00
2018-09-19T11:21:48.336Z,45.00
2018-09-19T11:22:49.019Z,45.00
2018-09-19T11:23:49.567Z,45.00
2018-09-19T11:24:50.189Z,39.38
2018-09-19T11:25:50.825Z,45.00
2018-09-19T11:26:51.442Z,39.38
2018-09-19T11:27:52.053Z,45.00
2018-09-19T11:28:52.702Z,39.38
2018-09-19T11:29:53.285Z,50.63
2018-09-19T11:30:53.918Z,45.00
2018-09-19T11:31:54.546Z,39.38
2018-09-19T11:32:55.167Z,56.25
2018-09-19T11:33:55.793Z,33.75
2018-09-19T11:34:56.421Z,45.00
2018-09-19T11:35:57.060Z,45.00
2018-09-19T11:36:57.679Z,39.38
2018-09-19T11:37:58.293Z,39.38
2018-09-19T11:38:59.094Z,39.38
2018-09-19T11:39:59.542Z,39.38
2018-09-19T11:41:00.157Z,39.38
2018-09-19T11:42:00.775Z,22.50
2018-09-19T11:43:01.398Z,22.50
2018-09-19T11:44:02.015Z,45.00
2018-09-19T11:45:02.633Z,45.00
2018-09-19T11:46:03.255Z,39.38
2018-09-19T11:47:03.918Z,33.75
2018-09-19T11:48:04.499Z,33.75
2018-09-19T11:49:05.136Z,45.00
2018-09-19T11:50:05.744Z,16.88
2018-09-19T11:51:06.364Z,28.13
2018-09-19T11:52:06.978Z,39.38
2018-09-19T11:53:07.602Z,33.75
2018-09-19T11:54:08.228Z,33.75
2018-09-19T11:55:08.843Z,39.38
2018-09-19T11:56:09.531Z,28.13
2018-09-19T11:57:10.139Z,22.50
2018-09-19T11:58:10.811Z,33.75
2018-09-19T11:59:11.404Z,28.13
2018-09-19T12:00:12.024Z,45.00
2018-09-19T12:01:12.703Z,33.75
2018-09-19T12:02:13.265Z,33.75
2018-09-19T12:03:13.883Z,50.63
2018-09-19T12:04:14.508Z,61.88
2018-09-19T12:05:15.136Z,39.38
2018-09-19T12:06:15.752Z,45.00
2018-09-19T12:07:16.384Z,56.25
2018-09-19T12:08:17.000Z,39.38
2018-09-19T12:09:17.616Z,39.38
2018-09-19T12:10:18.243Z,39.38
2018-09-19T12:11:18.868Z,39.38
2018-09-19T12:11:20.029Z,39.38
2018-09-19T12:13:19.510Z,39.38
2018-09-19T12:14:20.132Z,45.00
2018-09-19T12:15:20.757Z,45.00
2018-09-19T12:16:21.384Z,39.38
2018-09-19T12:17:24.878Z,45.00
2018-09-19T12:18:25.497Z,39.38
2018-09-19T12:19:26.165Z,39.38
2018-09-19T12:20:26.740Z,39.38
2018-09-19T12:21:27.359Z,33.75
2018-09-19T12:22:27.976Z,45.00
2018-09-19T12:23:28.595Z,50.63
2018-09-19T12:24:29.218Z,45.00
2018-09-19T12:25:29.835Z,39.38
2018-09-19T12:26:30.463Z,33.75
2018-09-19T12:27:31.075Z,39.38
2018-09-19T12:28:31.702Z,50.63
2018-09-19T12:29:32.327Z,50.63
2018-09-19T12:30:32.940Z,33.75
2018-09-19T12:31:33.562Z,33.75
2018-09-19T12:32:34.196Z,33.75
2018-09-19T12:33:34.809Z,39.38
2018-09-19T12:34:35.431Z,33.75
2018-09-19T12:35:36.053Z,33.75
2018-09-19T12:36:36.680Z,45.00
2018-09-19T12:37:37.302Z,33.75
2018-09-19T12:38:37.932Z,16.88
2018-09-19T12:39:38.570Z,16.88
2018-09-19T12:40:39.183Z,22.50
2018-09-19T12:41:39.807Z,28.13
2018-09-19T12:42:40.432Z,33.75
2018-09-19T12:43:41.100Z,28.13
2018-09-19T12:44:41.728Z,22.50
2018-09-19T12:45:42.289Z,28.13
2018-09-19T12:46:42.911Z,33.75
2018-09-19T12:47:43.571Z,39.38
2018-09-19T12:48:44.179Z,45.00
2018-09-19T12:49:44.791Z,39.38
2018-09-19T12:50:45.417Z,50.63
2018-09-19T12:51:46.187Z,39.38
2018-09-19T12:52:46.656Z,33.75
2018-09-19T12:53:47.331Z,33.75
2018-09-19T12:54:47.906Z,39.38
2018-09-19T12:55:48.585Z,28.13
2018-09-19T12:56:49.182Z,33.75
2018-09-19T12:57:49.775Z,45.00
2018-09-19T12:58:50.395Z,33.75
2018-09-19T12:59:51.058Z,39.38
2018-09-19T13:00:51.735Z,33.75
2018-09-19T13:01:52.295Z,45.00
2018-09-19T13:02:53.018Z,39.38
2018-09-19T13:03:53.565Z,33.75
2018-09-19T13:04:54.172Z,33.75
2018-09-19T13:05:54.824Z,33.75
2018-09-19T13:06:55.427Z,33.75
2018-09-19T13:07:56.234Z,33.75
2018-09-19T13:08:56.846Z,28.13
2018-09-19T13:09:57.271Z,33.75
2018-09-19T13:10:57.891Z,33.75
2018-09-19T13:11:58.514Z,33.75
2018-09-19T13:12:59.256Z,33.75
2018-09-19T13:13:59.760Z,33.75
2018-09-19T13:15:00.515Z,28.13
2018-09-19T13:16:01.040Z,33.75
2018-09-19T13:17:01.652Z,33.75
2018-09-19T13:18:02.422Z,33.75
2018-09-19T13:19:03.003Z,33.75
2018-09-19T13:20:03.564Z,16.88
2018-09-19T13:21:05.927Z,16.88
2018-09-19T13:22:06.541Z,28.13
2018-09-19T13:23:07.166Z,33.75
2018-09-19T13:23:08.286Z,22.50
2018-09-19T13:25:07.820Z,22.50
2018-09-19T13:26:08.440Z,28.13
2018-09-19T13:27:09.081Z,28.13
2018-09-19T13:28:09.705Z,22.50
2018-09-19T13:29:10.362Z,22.50
2018-09-19T13:30:10.985Z,22.50
2018-09-19T13:31:11.606Z,22.50
2018-09-19T13:32:12.228Z,22.50
2018-09-19T13:33:12.855Z,28.13
2018-09-19T13:34:13.489Z,22.50
2018-09-19T13:35:14.143Z,22.50
2018-09-19T13:36:14.731Z,22.50